Time;durP1;ratioP1;P1;durP2;ratioP2;P2;SDS_P1;SDS_P2;PMS_P1;PMS_P2;Temp;Humidity;BMP_temperature;BMP_pressure;BME280_temperature;BME280_humidity;BME280_pressure;Samples;Min_cycle;Max_cycle;Signal;HPM_P1;HPM_P2
2022/08/13 00:02:47;;;;;;;1.77;1.30;;;15.20;1.00;;;;;;5108573;27;20043;-90
2022/08/13 00:05:34;;;;;;;4.40;1.30;;;15.10;1.00;;;;;;5127604;27;20050;-89
2022/08/13 00:08:32;;;;;;;1.38;1.10;;;14.90;1.00;;;;;;5104596;28;20120;-90
2022/08/13 00:14:47;;;;;;;1.55;1.30;;;14.50;1.00;;;;;;5121562;28;20764;-91
2022/08/13 00:17:37;;;;;;;5.85;1.55;;;14.50;1.00;;;;;;5122551;28;20073;-90
2022/08/13 00:20:50;;;;;;;3.42;1.20;;;14.40;1.00;;;;;;5110388;27;20122;-90
2022/08/13 00:23:43;;;;;;;2.80;1.35;;;14.30;1.00;;;;;;5107583;28;20519;-89
2022/08/13 00:26:46;;;;;;;1.83;1.60;;;14.30;1.00;;;;;;5110054;28;20043;-90
2022/08/13 00:29:33;;;;;;;3.38;1.20;;;14.30;1.00;;;;;;5110224;27;20197;-90
2022/08/13 00:32:29;;;;;;;3.65;1.23;;;14.40;1.00;;;;;;5121135;28;20040;-90
2022/08/13 00:35:18;;;;;;;3.55;1.88;;;14.30;1.00;;;;;;5121030;28;20056;-89
2022/08/13 00:38:29;;;;;;;3.92;1.50;;;14.40;1.00;;;;;;5110294;28;20698;-90
2022/08/13 00:41:38;;;;;;;1.85;1.65;;;14.30;1.00;;;;;;5114093;27;20067;-90
2022/08/13 00:44:46;;;;;;;2.00;1.80;;;14.20;1.00;;;;;;5116092;27;20134;-90
2022/08/13 00:50:42;;;;;;;1.60;1.50;;;13.90;1.00;;;;;;5124356;27;20074;-89
2022/08/13 00:53:34;;;;;;;1.88;1.45;;;13.80;1.00;;;;;;5123427;28;20496;-89
2022/08/13 00:56:33;;;;;;;4.95;1.73;;;13.80;1.00;;;;;;5113843;28;20047;-90
2022/08/13 00:59:20;;;;;;;3.45;1.50;;;13.90;1.00;;;;;;5121214;27;20047;-90
2022/08/13 01:02:11;;;;;;;2.28;1.42;;;13.90;1.00;;;;;;5122169;28;20153;-86
2022/08/13 01:05:01;;;;;;;2.15;1.60;;;13.80;1.00;;;;;;5094047;28;20046;-90
2022/08/13 01:07:50;;;;;;;2.63;1.40;;;13.80;1.00;;;;;;5118761;28;20035;-90
2022/08/13 01:10:47;;;;;;;3.25;1.80;;;13.80;1.00;;;;;;5116328;28;20096;-90
2022/08/13 01:13:45;;;;;;;4.80;1.38;;;13.80;1.00;;;;;;5113026;28;20122;-90
2022/08/13 01:16:35;;;;;;;4.13;1.77;;;13.70;1.00;;;;;;5112715;28;20048;-89
2022/08/13 01:19:24;;;;;;;1.77;1.38;;;13.70;1.00;;;;;;5119637;28;20496;-90
2022/08/13 01:22:33;;;;;;;1.83;1.55;;;13.60;1.00;;;;;;5120457;28;20469;-90
2022/08/13 01:25:27;;;;;;;1.70;1.50;;;13.50;1.00;;;;;;5120424;28;20039;-90
2022/08/13 01:28:16;;;;;;;2.67;1.67;;;13.50;1.00;;;;;;5115824;28;20040;-89
2022/08/13 01:31:06;;;;;;;3.28;1.67;;;13.40;1.00;;;;;;5122143;27;20469;-90
2022/08/13 01:34:05;;;;;;;1.65;1.55;;;13.30;1.00;;;;;;5116261;28;20051;-90
2022/08/13 01:37:00;;;;;;;2.05;1.70;;;13.20;1.00;;;;;;5107562;28;20059;-88
2022/08/13 01:39:50;;;;;;;2.92;1.65;;;13.40;1.00;;;;;;5115084;27;20043;-91
2022/08/13 01:42:45;;;;;;;1.73;1.63;;;13.50;1.00;;;;;;5108033;27;20454;-90
2022/08/13 01:45:34;;;;;;;3.90;1.80;;;13.70;1.00;;;;;;5102645;28;20207;-89
2022/08/13 01:51:48;;;;;;;2.00;1.80;;;13.70;1.00;;;;;;5124223;28;20040;-90
2022/08/13 01:54:41;;;;;;;3.22;1.90;;;13.70;1.00;;;;;;5135462;27;20043;-85
2022/08/13 01:57:32;;;;;;;3.97;1.80;;;13.60;1.00;;;;;;5120700;27;20028;-90
2022/08/13 02:00:31;;;;;;;3.33;1.88;;;13.50;1.00;;;;;;5140674;27;20024;-84
2022/08/13 02:03:19;;;;;;;4.32;1.60;;;13.40;1.00;;;;;;5132521;28;20077;-88
2022/08/13 02:06:11;;;;;;;2.40;1.90;;;13.30;1.00;;;;;;5132108;28;20042;-89
2022/08/13 02:09:15;;;;;;;2.55;2.00;;;13.30;1.00;;;;;;5109656;28;20036;-90
2022/08/13 02:12:23;;;;;;;2.25;1.83;;;13.20;1.00;;;;;;5108731;28;20043;-90
2022/08/13 02:15:30;;;;;;;2.17;1.85;;;13.10;1.00;;;;;;5115747;28;20043;-91
2022/08/13 02:18:28;;;;;;;3.90;1.80;;;12.90;1.00;;;;;;5111089;28;20047;-85
2022/08/13 02:21:22;;;;;;;2.90;1.70;;;12.80;1.00;;;;;;5114047;28;20044;-91
2022/08/13 02:24:13;;;;;;;3.85;1.88;;;12.70;1.00;;;;;;5124087;28;20074;-90
2022/08/13 02:27:07;;;;;;;3.00;2.00;;;12.70;1.00;;;;;;5101370;28;20516;-90
2022/08/13 02:30:01;;;;;;;3.42;2.30;;;12.70;1.00;;;;;;5114239;28;20043;-89
2022/08/13 02:32:51;;;;;;;6.30;2.50;;;12.70;1.00;;;;;;5106113;28;20043;-90
2022/08/13 02:35:43;;;;;;;2.63;2.05;;;12.70;1.00;;;;;;5111957;28;20043;-90
2022/08/13 02:38:34;;;;;;;9.20;2.30;;;12.60;1.00;;;;;;5117791;28;20410;-91
2022/08/13 02:41:43;;;;;;;3.97;2.17;;;12.50;1.00;;;;;;5106609;28;20036;-89
2022/08/13 02:44:39;;;;;;;4.93;2.03;;;12.40;1.00;;;;;;5102961;28;20166;-91
2022/08/13 02:47:32;;;;;;;3.78;1.90;;;12.40;1.00;;;;;;5110618;28;20040;-88
2022/08/13 02:50:31;;;;;;;3.60;2.38;;;12.40;1.00;;;;;;5113133;28;20104;-90
2022/08/13 02:53:32;;;;;;;2.35;2.15;;;12.20;1.00;;;;;;5114606;28;20104;-90
2022/08/13 02:56:23;;;;;;;3.83;2.20;;;12.10;1.00;;;;;;5117055;28;20031;-89
2022/08/13 02:59:16;;;;;;;2.97;2.50;;;12.10;1.00;;;;;;5128708;28;20069;-81
2022/08/13 03:02:24;;;;;;;2.83;2.63;;;12.10;1.00;;;;;;5136863;28;20027;-80
2022/08/13 03:05:15;;;;;;;3.17;2.35;;;12.30;1.00;;;;;;5125435;28;20040;-80
2022/08/13 03:08:05;;;;;;;2.30;2.10;;;12.30;1.00;;;;;;5136969;28;20062;-80
2022/08/13 03:10:56;;;;;;;4.43;2.15;;;12.30;1.00;;;;;;5136534;28;20024;-81
2022/08/13 03:13:52;;;;;;;4.55;2.38;;;12.40;1.00;;;;;;5136052;28;20051;-89
2022/08/13 03:16:40;;;;;;;4.18;2.10;;;12.40;1.00;;;;;;5120695;27;20097;-89
2022/08/13 03:19:32;;;;;;;3.90;2.50;;;12.40;1.00;;;;;;5132573;27;20097;-90
2022/08/13 03:22:22;;;;;;;3.08;2.45;;;12.40;1.00;;;;;;5132087;27;20047;-88
2022/08/13 03:25:09;;;;;;;2.85;2.17;;;12.30;1.00;;;;;;5125638;27;20075;-85
2022/08/13 03:28:00;;;;;;;2.72;2.40;;;12.20;1.00;;;;;;5092992;28;20158;-90
2022/08/13 03:30:47;;;;;;;4.32;2.47;;;12.10;1.00;;;;;;5092273;27;20103;-89
2022/08/13 03:33:42;;;;;;;3.22;2.40;;;12.10;1.00;;;;;;5103669;28;20488;-90
2022/08/13 03:36:49;;;;;;;2.70;2.15;;;12.10;1.00;;;;;;5110817;28;20055;-90
2022/08/13 03:39:39;;;;;;;3.42;2.38;;;12.10;2.30;;;;;;5115504;27;20069;-87
2022/08/13 03:42:28;;;;;;;2.92;2.40;;;12.10;6.50;;;;;;5125300;27;20047;-89
2022/08/13 03:45:35;;;;;;;4.03;2.40;;;12.10;8.90;;;;;;5126633;28;20401;-90
2022/08/13 03:48:32;;;;;;;2.85;2.65;;;12.00;17.00;;;;;;5117406;28;20082;-81
2022/08/13 03:51:23;;;;;;;3.15;2.88;;;12.00;26.20;;;;;;5158591;27;20068;-81
2022/08/13 03:54:30;;;;;;;4.32;2.70;;;11.90;31.60;;;;;;5125255;27;20083;-82
2022/08/13 03:57:19;;;;;;;5.22;2.90;;;11.90;39.30;;;;;;5134807;28;20055;-89
2022/08/13 04:00:15;;;;;;;4.40;2.45;;;11.90;34.30;;;;;;5135219;27;20059;-89
2022/08/13 04:03:13;;;;;;;4.90;3.00;;;12.00;12.20;;;;;;5119944;27;20035;-90
2022/08/13 04:06:07;;;;;;;3.65;2.75;;;12.10;1.20;;;;;;5120526;27;20039;-90
2022/08/13 04:09:02;;;;;;;2.50;2.30;;;12.10;3.50;;;;;;5094178;28;20098;-91
2022/08/13 04:11:49;;;;;;;4.80;2.55;;;12.00;13.40;;;;;;5115305;27;20132;-91
2022/08/13 04:14:51;;;;;;;3.42;2.47;;;11.90;26.50;;;;;;5113218;27;20068;-90
2022/08/13 04:17:48;;;;;;;4.18;2.63;;;11.70;47.40;;;;;;5102502;28;20047;-89
2022/08/13 04:20:41;;;;;;;3.33;2.88;;;11.70;68.60;;;;;;5110174;28;20052;-90
2022/08/13 04:23:34;;;;;;;4.13;2.53;;;11.70;90.50;;;;;;5109394;28;20101;-90
2022/08/13 04:26:29;;;;;;;4.47;2.78;;;11.70;99.90;;;;;;5108921;27;20040;-90
2022/08/13 04:29:18;;;;;;;5.28;2.72;;;11.70;99.90;;;;;;5102068;28;20047;-90
2022/08/13 04:32:09;;;;;;;4.30;2.67;;;11.70;99.90;;;;;;5114890;28;20044;-90
2022/08/13 04:35:12;;;;;;;4.07;2.70;;;11.80;99.90;;;;;;5111948;28;20043;-90
2022/08/13 04:38:05;;;;;;;4.05;2.85;;;11.90;99.90;;;;;;5108198;28;20044;-90
2022/08/13 04:40:53;;;;;;;5.63;2.70;;;12.20;99.90;;;;;;5114253;27;20106;-91
2022/08/13 04:43:45;;;;;;;4.25;2.33;;;12.30;58.60;;;;;;5118905;28;20057;-90
2022/08/13 04:46:48;;;;;;;6.60;2.90;;;12.30;35.30;;;;;;5107129;28;20177;-89
2022/08/13 04:49:35;;;;;;;4.43;2.58;;;12.30;33.20;;;;;;5114986;28;20047;-90
2022/08/13 04:52:31;;;;;;;4.32;3.10;;;12.20;42.50;;;;;;5113294;27;20036;-90
2022/08/13 04:55:19;;;;;;;2.72;2.53;;;12.30;53.40;;;;;;5110832;28;20050;-89
2022/08/13 04:58:08;;;;;;;3.78;2.88;;;12.30;64.80;;;;;;5115321;27;20043;-90
2022/08/13 05:00:58;;;;;;;5.45;3.75;;;12.30;83.10;;;;;;5111518;28;20535;-89
2022/08/13 05:03:46;;;;;;;4.00;2.83;;;12.40;64.50;;;;;;5108719;28;20138;-90
2022/08/13 05:06:42;;;;;;;5.55;3.03;;;12.60;45.90;;;;;;5112807;27;20050;-91
2022/08/13 05:09:31;;;;;;;4.35;2.45;;;12.80;28.30;;;;;;5118195;27;20032;-87
2022/08/13 05:12:19;;;;;;;6.05;2.70;;;12.90;20.70;;;;;;5102638;27;20039;-88
2022/08/13 05:15:26;;;;;;;2.78;2.17;;;12.90;17.50;;;;;;5109239;28;20039;-86
2022/08/13 05:18:42;;;;;;;3.47;2.35;;;13.10;16.50;;;;;;5104628;27;20159;-90
2022/08/13 05:21:32;;;;;;;7.35;2.20;;;13.20;13.50;;;;;;5106324;27;20465;-90
2022/08/13 05:24:41;;;;;;;4.45;2.28;;;13.30;7.60;;;;;;5103630;28;20119;-89
2022/08/13 05:27:48;;;;;;;2.50;2.30;;;13.40;1.00;;;;;;5115061;28;20061;-88
2022/08/13 05:30:38;;;;;;;5.28;2.40;;;13.50;1.00;;;;;;5099255;28;20140;-88
2022/08/13 05:33:28;;;;;;;3.67;2.50;;;13.60;1.00;;;;;;5110731;28;20435;-89
2022/08/13 05:36:31;;;;;;;4.72;2.22;;;13.80;1.00;;;;;;5102605;27;20039;-86
2022/08/13 05:39:42;;;;;;;2.60;2.40;;;14.00;1.00;;;;;;5111175;28;20126;-87
2022/08/13 05:42:38;;;;;;;3.28;2.38;;;14.10;1.00;;;;;;5113764;27;20083;-84
2022/08/13 05:45:29;;;;;;;5.07;2.58;;;14.20;1.00;;;;;;5119145;27;20043;-86
2022/08/13 05:48:17;;;;;;;3.70;2.00;;;14.20;1.00;;;;;;5108501;27;20054;-86
2022/08/13 05:51:13;;;;;;;5.05;2.70;;;14.20;1.00;;;;;;5130350;27;20166;-87
2022/08/13 05:54:01;;;;;;;4.47;2.35;;;14.30;1.00;;;;;;5096010;28;20050;-85
2022/08/13 05:57:09;;;;;;;3.08;2.50;;;14.30;1.00;;;;;;5113996;27;20039;-87
2022/08/13 06:06:29;;;;;;;2.67;2.30;;;15.00;1.00;;;;;;5116916;27;20363;-86
2022/08/13 06:09:21;;;;;;;5.03;2.30;;;15.20;1.00;;;;;;5120747;27;20104;-83
2022/08/13 06:12:18;;;;;;;3.65;2.10;;;15.30;1.00;;;;;;5120766;27;20044;-86
2022/08/13 06:15:21;;;;;;;4.82;2.10;;;15.50;1.00;;;;;;5133484;27;20054;-85
2022/08/13 06:18:16;;;;;;;3.88;1.80;;;15.50;1.00;;;;;;5113405;27;20046;-85
2022/08/13 06:21:18;;;;;;;2.13;1.92;;;15.80;1.00;;;;;;5109807;27;20051;-83
2022/08/13 06:24:27;;;;;;;1.70;1.50;;;16.10;1.00;;;;;;5107316;28;20123;-87
2022/08/13 06:27:14;;;;;;;4.47;1.90;;;16.30;1.00;;;;;;5097544;27;20130;-86
2022/08/13 06:30:03;;;;;;;4.53;2.17;;;16.40;1.00;;;;;;5122018;27;20047;-87
2022/08/13 06:32:51;;;;;;;4.22;1.90;;;16.60;1.00;;;;;;5087625;28;20453;-86
2022/08/13 06:36:14;;;;;;;4.78;1.73;;;16.80;1.00;;;;;;5110851;27;20451;-88
2022/08/13 06:39:05;;;;;;;3.03;1.92;;;17.00;1.00;;;;;;5109081;28;20035;-90
2022/08/13 06:42:02;;;;;;;6.13;1.95;;;17.20;1.00;;;;;;5110642;28;20409;-90
2022/08/13 06:44:53;;;;;;;3.05;2.00;;;17.30;1.00;;;;;;5111234;28;20107;-88
2022/08/13 06:47:41;;;;;;;5.40;2.00;;;17.40;1.00;;;;;;5112930;28;20429;-89
2022/08/13 06:50:40;;;;;;;4.32;2.38;;;17.60;1.00;;;;;;5113397;28;20100;-88
2022/08/13 06:53:37;;;;;;;6.72;2.20;;;18.00;1.00;;;;;;5116123;27;20050;-88
2022/08/13 06:56:44;;;;;;;4.32;1.67;;;18.30;1.00;;;;;;5117032;28;20080;-90
2022/08/13 06:59:48;;;;;;;4.43;1.95;;;18.70;1.00;;;;;;5117540;27;20073;-89
2022/08/13 07:02:56;;;;;;;2.63;1.75;;;19.00;1.00;;;;;;5118503;27;20458;-91
2022/08/13 07:05:45;;;;;;;3.08;1.75;;;19.30;1.00;;;;;;5117284;27;20040;-88
2022/08/13 07:08:47;;;;;;;2.25;2.05;;;19.50;1.00;;;;;;5108734;27;20144;-90
2022/08/13 07:11:35;;;;;;;1.50;1.35;;;20.00;1.00;;;;;;5112999;28;20093;-90
2022/08/13 07:14:26;;;;;;;2.63;1.60;;;20.50;1.00;;;;;;5117533;27;20039;-90
2022/08/13 07:17:15;;;;;;;2.42;1.42;;;21.20;1.00;;;;;;5117576;27;20102;-88
2022/08/13 07:20:04;;;;;;;21.90;1.70;;;21.70;1.00;;;;;;5114916;28;20052;-88
2022/08/13 07:23:11;;;;;;;4.95;1.60;;;22.30;1.00;;;;;;5108515;28;20043;-89
2022/08/13 07:26:24;;;;;;;2.13;1.38;;;22.70;1.00;;;;;;5093048;28;20058;-83
2022/08/13 07:29:12;;;;;;;1.33;1.23;;;22.90;1.00;;;;;;5110951;27;20050;-88
2022/08/13 07:32:02;;;;;;;3.33;1.30;;;23.00;99.90;;;;;;5114196;28;20075;-87
2022/08/13 07:34:52;;;;;;;2.53;1.40;;;23.30;99.90;;;;;;5126444;27;20044;-89
2022/08/13 07:37:42;;;;;;;4.10;1.40;;;23.30;99.90;;;;;;5118673;27;20044;-88
2022/08/13 07:40:48;;;;;;;5.25;1.30;;;24.00;99.90;;;;;;5107178;28;20052;-90
2022/08/13 07:43:36;;;;;;;3.58;1.40;;;24.40;99.90;;;;;;5122355;27;20446;-87
2022/08/13 07:46:48;;;;;;;2.33;1.48;;;24.60;99.90;;;;;;5113136;28;20386;-88
2022/08/13 07:49:44;;;;;;;3.05;1.50;;;24.80;99.90;;;;;;5106970;28;20367;-87
2022/08/13 07:52:32;;;;;;;2.22;1.20;;;25.40;99.90;;;;;;5112857;28;20039;-90
2022/08/13 07:55:25;;;;;;;2.03;1.42;;;25.60;99.90;;;;;;5115518;27;20043;-87
2022/08/13 07:58:35;;;;;;;3.27;1.57;;;25.90;99.90;;;;;;5098201;28;20390;-90
2022/08/13 08:01:26;;;;;;;1.63;1.38;;;26.10;99.90;;;;;;5116118;28;20044;-91
2022/08/13 08:04:35;;;;;;;1.80;1.35;;;26.00;99.90;;;;;;5129177;27;20126;-89
2022/08/13 08:07:29;;;;;;;3.10;1.48;;;26.40;99.90;;;;;;5117688;28;20191;-90
2022/08/13 08:10:40;;;;;;;1.98;1.15;;;26.50;99.90;;;;;;5103713;28;20096;-87
2022/08/13 08:13:34;;;;;;;3.85;1.73;;;26.80;99.90;;;;;;5113040;28;20126;-87
2022/08/13 08:16:22;;;;;;;1.73;1.10;;;27.10;99.90;;;;;;5106347;27;20055;-91
2022/08/13 08:19:13;;;;;;;2.65;1.27;;;27.20;99.90;;;;;;5112961;28;20039;-89
2022/08/13 08:22:21;;;;;;;2.47;1.42;;;27.50;99.90;;;;;;5116199;27;20118;-91
2022/08/13 08:25:21;;;;;;;2.30;1.33;;;27.70;99.90;;;;;;5116104;28;20043;-88
2022/08/13 08:28:10;;;;;;;5.10;1.20;;;28.00;99.90;;;;;;5110282;28;20406;-89
2022/08/13 08:31:18;;;;;;;1.27;1.17;;;27.90;99.90;;;;;;5111451;27;20485;-91
2022/08/13 08:34:17;;;;;;;1.48;1.30;;;28.30;99.90;;;;;;5115222;28;20100;-88
2022/08/13 08:37:06;;;;;;;1.42;1.30;;;28.20;99.90;;;;;;5110665;28;20146;-90
2022/08/13 08:43:19;;;;;;;3.05;1.13;;;28.20;99.90;;;;;;5108698;28;20366;-89
2022/08/13 08:46:11;;;;;;;4.30;1.20;;;27.90;99.90;;;;;;5107059;28;20039;-89
2022/08/13 08:49:04;;;;;;;3.58;1.25;;;28.10;99.90;;;;;;5111157;27;20047;-88
2022/08/13 08:52:03;;;;;;;2.80;1.10;;;28.50;99.90;;;;;;5107666;28;20040;-89
2022/08/13 08:54:51;;;;;;;2.42;1.10;;;28.80;99.90;;;;;;5123858;28;20044;-87
2022/08/13 08:57:46;;;;;;;2.33;1.10;;;28.70;99.90;;;;;;5120178;28;20039;-89
2022/08/13 09:00:40;;;;;;;3.00;1.30;;;28.30;99.90;;;;;;5115814;28;20040;-83
2022/08/13 09:03:27;;;;;;;1.85;1.10;;;27.60;99.90;;;;;;5117602;28;20044;-87
2022/08/13 09:06:35;;;;;;;2.25;1.30;;;27.40;99.90;;;;;;5125064;27;20060;-87
2022/08/13 09:09:43;;;;;;;3.63;1.50;;;26.90;99.90;;;;;;5134605;28;20063;-90
2022/08/13 09:12:35;;;;;;;2.03;1.20;;;26.10;99.90;;;;;;5148995;27;20101;-86
2022/08/13 09:15:23;;;;;;;4.13;1.38;;;25.50;99.90;;;;;;5120697;28;20040;-87
2022/08/13 09:18:19;;;;;;;1.90;1.35;;;24.70;99.90;;;;;;5106785;28;20075;-83
2022/08/13 09:21:17;;;;;;;1.40;1.30;;;24.40;99.90;;;;;;5113518;27;20055;-88
2022/08/13 09:24:17;;;;;;;3.22;1.30;;;24.40;99.90;;;;;;5109781;27;20048;-87
2022/08/13 09:27:07;;;;;;;1.92;1.40;;;25.20;99.90;;;;;;5120865;27;20051;-89
2022/08/13 09:29:54;;;;;;;1.98;1.30;;;25.20;99.90;;;;;;5110818;27;20044;-87
2022/08/13 09:32:48;;;;;;;3.58;1.40;;;25.20;99.90;;;;;;5115399;27;20469;-87
2022/08/13 09:35:35;;;;;;;1.90;1.60;;;25.80;99.90;;;;;;5113385;27;20048;-86
2022/08/13 09:38:24;;;;;;;2.13;1.50;;;25.90;99.90;;;;;;5106077;28;20043;-87
2022/08/13 09:41:35;;;;;;;3.25;1.25;;;25.90;99.90;;;;;;5098140;28;20108;-86
2022/08/13 09:44:26;;;;;;;1.48;1.30;;;25.90;99.90;;;;;;5095618;28;20478;-84
2022/08/13 09:47:26;;;;;;;2.05;1.25;;;25.90;99.90;;;;;;5112252;27;20035;-89
2022/08/13 09:50:35;;;;;;;2.33;1.30;;;25.60;99.90;;;;;;5112797;27;20114;-89
2022/08/13 09:53:26;;;;;;;3.55;1.50;;;25.50;99.90;;;;;;5110232;28;20039;-87
2022/08/13 09:56:17;;;;;;;3.03;1.27;;;26.00;99.90;;;;;;5114988;27;20370;-86
2022/08/13 09:59:10;;;;;;;4.25;1.40;;;27.60;99.90;;;;;;5122786;27;20521;-85
2022/08/13 10:02:16;;;;;;;3.13;1.20;;;29.80;99.90;;;;;;5123128;27;20067;-89
2022/08/13 10:05:06;;;;;;;2.58;1.00;;;31.10;99.90;;;;;;5115216;28;20047;-88
2022/08/13 10:07:56;;;;;;;7.90;1.40;;;30.80;99.90;;;;;;5098659;28;20039;-89
2022/08/13 10:10:47;;;;;;;7.25;1.42;;;30.10;99.90;;;;;;5096344;28;20036;-87
2022/08/13 10:13:35;;;;;;;3.30;1.40;;;29.70;99.90;;;;;;5106444;27;20043;-86
2022/08/13 10:16:37;;;;;;;7.38;1.73;;;29.60;99.90;;;;;;5114746;27;20047;-88
2022/08/13 10:19:29;;;;;;;2.72;1.35;;;29.20;99.90;;;;;;5097664;28;20066;-89
2022/08/13 10:22:18;;;;;;;7.18;2.10;;;28.60;99.90;;;;;;5109184;28;20343;-89
2022/08/13 10:25:12;;;;;;;3.72;1.40;;;27.40;99.90;;;;;;5104230;28;20051;-83
2022/08/13 10:27:59;;;;;;;4.13;1.35;;;27.40;99.90;;;;;;5106655;28;20060;-84
2022/08/13 10:30:49;;;;;;;4.00;1.63;;;27.40;99.90;;;;;;5110048;27;20131;-89
2022/08/13 10:33:47;;;;;;;1.95;1.40;;;27.20;99.90;;;;;;5116371;28;20613;-87
2022/08/13 10:36:35;;;;;;;5.18;1.65;;;28.00;99.90;;;;;;5115289;28;20055;-86
2022/08/13 10:39:23;;;;;;;2.53;1.30;;;28.50;99.90;;;;;;5112560;28;20466;-89
2022/08/13 10:42:13;;;;;;;6.53;1.58;;;28.80;99.90;;;;;;5110123;28;20052;-90
2022/08/13 10:45:02;;;;;;;5.05;1.65;;;29.00;99.90;;;;;;5110187;28;20050;-87
2022/08/13 10:47:54;;;;;;;1.20;1.10;;;28.90;99.90;;;;;;5113313;28;20058;-89
2022/08/13 10:50:47;;;;;;;3.15;1.50;;;28.90;99.90;;;;;;5114163;28;20051;-90
2022/08/13 10:57:22;;;;;;;1.85;1.20;;;29.10;99.90;;;;;;5112574;28;20087;-88
2022/08/13 11:00:12;;;;;;;2.95;1.25;;;28.60;99.90;;;;;;5121492;28;20044;-88
2022/08/13 11:02:59;;;;;;;2.83;1.50;;;28.70;99.90;;;;;;5108115;28;20058;-89
2022/08/13 11:05:47;;;;;;;5.47;1.42;;;28.50;99.90;;;;;;5112649;28;20325;-89
2022/08/13 11:08:39;;;;;;;1.88;1.10;;;28.60;99.90;;;;;;5111317;28;20476;-89
2022/08/13 11:11:30;;;;;;;2.67;1.43;;;28.60;99.90;;;;;;5107168;28;20047;-89
2022/08/13 11:14:38;;;;;;;2.30;1.50;;;28.50;99.90;;;;;;5125840;28;20107;-88
2022/08/13 11:17:27;;;;;;;3.00;1.67;;;27.90;99.90;;;;;;5125366;28;20461;-86
2022/08/13 11:21:02;;;;;;;3.38;1.55;;;28.20;99.90;;;;;;5117699;28;20612;-86
2022/08/13 11:23:42;;;;;;;2.47;1.33;;;28.40;99.90;;;;;;5114359;28;20130;-88
2022/08/13 11:26:39;;;;;;;2.85;1.58;;;29.60;99.90;;;;;;5114593;28;20039;-88
2022/08/13 11:29:30;;;;;;;2.88;1.30;;;31.00;99.90;;;;;;5111068;28;20039;-91
2022/08/13 11:32:26;;;;;;;6.10;1.23;;;31.90;99.90;;;;;;5116576;28;20118;-89
2022/08/13 11:35:16;;;;;;;3.05;1.25;;;33.30;99.90;;;;;;5114414;28;20065;-87
2022/08/13 11:38:12;;;;;;;2.70;1.20;;;33.70;99.90;;;;;;5127887;28;20104;-87
2022/08/13 11:41:01;;;;;;;1.42;1.30;;;34.30;99.90;;;;;;5141579;27;20094;-85
2022/08/13 11:43:54;;;;;;;1.98;0.95;;;34.10;99.90;;;;;;5124816;27;20050;-80
2022/08/13 11:46:44;;;;;;;1.48;0.90;;;34.50;99.90;;;;;;5129796;28;20044;-85
2022/08/13 11:49:31;;;;;;;3.75;1.15;;;35.00;99.90;;;;;;5136296;28;20055;-89
2022/08/13 11:52:20;;;;;;;6.15;1.20;;;35.50;99.90;;;;;;5151453;27;20084;-87
2022/08/13 11:55:17;;;;;;;1.55;1.00;;;34.90;99.90;;;;;;5133095;27;20051;-88
2022/08/13 11:58:06;;;;;;;3.15;1.23;;;33.70;99.90;;;;;;5123269;27;20123;-91
2022/08/13 12:01:16;;;;;;;3.17;1.08;;;33.90;99.90;;;;;;5121900;27;20394;-90
2022/08/13 12:04:12;;;;;;;1.77;1.30;;;34.90;99.90;;;;;;5114563;27;20048;-90
2022/08/13 12:07:09;;;;;;;2.55;1.08;;;35.60;99.90;;;;;;5112188;28;20186;-88
2022/08/13 12:10:01;;;;;;;5.97;1.35;;;35.60;99.90;;;;;;5131808;27;20043;-87
2022/08/13 12:12:49;;;;;;;2.53;1.10;;;34.40;99.90;;;;;;5120135;27;20457;-88
2022/08/13 12:15:37;;;;;;;1.35;1.20;;;33.80;99.90;;;;;;5119154;27;20043;-89
2022/08/13 12:18:47;;;;;;;1.35;1.23;;;34.00;99.90;;;;;;5116271;27;20048;-90
2022/08/13 12:21:54;;;;;;;4.20;1.20;;;35.10;99.90;;;;;;5098248;28;20122;-90
2022/08/13 12:24:43;;;;;;;3.35;1.17;;;35.00;99.90;;;;;;5100394;28;20051;-87
2022/08/13 12:28:13;;;;;;;1.60;1.02;;;34.40;99.90;;;;;;5110369;28;20118;-89
2022/08/13 12:31:08;;;;;;;2.00;1.13;;;34.20;99.90;;;;;;5121108;27;20089;-90
2022/08/13 12:33:56;;;;;;;3.08;1.17;;;34.90;99.90;;;;;;5119892;27;20547;-89
2022/08/13 12:36:43;;;;;;;2.00;1.10;;;36.10;99.90;;;;;;5111216;28;20052;-90
2022/08/13 12:39:30;;;;;;;3.13;1.00;;;36.30;99.90;;;;;;5114263;28;20071;-87
2022/08/13 12:42:21;;;;;;;3.60;1.20;;;34.20;99.90;;;;;;5110506;27;20126;-89
2022/08/13 12:45:09;;;;;;;2.30;0.80;;;31.60;99.90;;;;;;5110152;27;20144;-88
2022/08/13 12:48:35;;;;;;;1.45;1.02;;;31.50;99.90;;;;;;5105201;28;20156;-89
2022/08/13 12:51:39;;;;;;;2.15;1.25;;;33.20;99.90;;;;;;5100084;27;20053;-91
2022/08/13 12:55:34;;;;;;;3.47;1.10;;;34.50;99.90;;;;;;5099591;27;20059;-91
2022/08/13 12:58:35;;;;;;;3.72;1.23;;;35.60;99.90;;;;;;5117840;27;20210;-92
2022/08/13 13:01:22;;;;;;;1.23;1.10;;;35.10;99.90;;;;;;5113034;28;20430;-90
2022/08/13 13:04:22;;;;;;;1.98;0.90;;;35.10;99.90;;;;;;5127726;27;20040;-91
2022/08/13 13:07:09;;;;;;;3.08;1.10;;;34.60;99.90;;;;;;5104100;28;20036;-89
2022/08/13 13:09:59;;;;;;;1.50;0.95;;;35.60;99.90;;;;;;5112773;27;20054;-92
2022/08/13 13:12:48;;;;;;;4.90;1.17;;;36.40;99.90;;;;;;5112325;27;20047;-88
2022/08/13 13:15:41;;;;;;;3.42;1.20;;;36.80;99.90;;;;;;5101636;28;20051;-88
2022/08/13 13:18:53;;;;;;;4.13;0.88;;;37.10;99.90;;;;;;5113986;27;20051;-89
2022/08/13 13:21:49;;;;;;;6.03;1.40;;;36.50;99.90;;;;;;5107109;27;20071;-88
2022/08/13 13:24:39;;;;;;;4.05;1.05;;;33.70;99.90;;;;;;5118253;27;20051;-91
2022/08/13 13:27:51;;;;;;;2.70;1.17;;;33.30;99.90;;;;;;5102258;27;20165;-91
2022/08/13 13:30:40;;;;;;;3.58;1.45;;;32.10;99.90;;;;;;5097622;27;20051;-90
2022/08/13 13:33:30;;;;;;;2.30;1.05;;;31.70;99.90;;;;;;5110240;27;20036;-89
2022/08/13 13:36:28;;;;;;;1.95;1.10;;;30.90;99.90;;;;;;5114605;27;20694;-91
2022/08/13 13:39:15;;;;;;;2.70;1.00;;;30.00;99.90;;;;;;5123320;27;20051;-92
2022/08/13 13:42:09;;;;;;;4.82;1.30;;;29.40;99.90;;;;;;5107719;28;20050;-90
2022/08/13 13:45:17;;;;;;;2.80;1.20;;;29.10;99.90;;;;;;5120246;27;20048;-89
2022/08/13 13:48:32;;;;;;;4.35;1.30;;;28.90;99.90;;;;;;5134297;27;20477;-89
2022/08/13 13:51:20;;;;;;;3.33;1.35;;;29.10;99.90;;;;;;5094023;28;20043;-87
2022/08/13 13:54:07;;;;;;;5.65;1.20;;;29.90;99.90;;;;;;5106376;28;20042;-90
2022/08/13 13:57:12;;;;;;;2.90;1.20;;;30.10;99.90;;;;;;5109128;27;20249;-87
2022/08/13 14:00:00;;;;;;;3.55;1.35;;;30.80;99.90;;;;;;5112679;27;20043;-87
2022/08/13 14:02:53;;;;;;;2.25;1.00;;;32.00;99.90;;;;;;5117783;27;20069;-89
2022/08/13 14:05:43;;;;;;;4.20;1.50;;;33.00;99.90;;;;;;5106971;27;20069;-88
2022/08/13 14:08:50;;;;;;;5.50;0.88;;;34.30;99.90;;;;;;5111245;28;20048;-89
2022/08/13 14:11:42;;;;;;;0.90;0.80;;;35.80;99.90;;;;;;5111247;27;20044;-90
2022/08/13 14:14:39;;;;;;;;;;;36.80;99.90;;;;;;5104116;28;20443;-89
2022/08/13 14:17:30;;;;;;;1.45;0.90;;;37.40;99.90;;;;;;5095292;28;20007;-89
2022/08/13 14:20:20;;;;;;;3.40;1.20;;;37.50;99.90;;;;;;5119921;27;20040;-90
2022/08/13 14:23:29;;;;;;;2.17;0.95;;;37.50;99.90;;;;;;5104186;27;20521;-85
2022/08/13 14:26:30;;;;;;;6.15;1.60;;;35.40;99.90;;;;;;5110808;28;20350;-83
2022/08/13 14:29:22;;;;;;;2.63;1.08;;;34.80;99.90;;;;;;5105194;28;20110;-87
2022/08/13 14:32:10;;;;;;;6.07;2.28;;;35.10;99.90;;;;;;5113414;28;20136;-88
2022/08/13 14:34:59;;;;;;;3.05;1.30;;;35.50;99.90;;;;;;5123833;27;20055;-89
2022/08/13 14:37:53;;;;;;;1.08;0.98;;;34.80;99.90;;;;;;5096155;28;20055;-90
2022/08/13 14:40:41;;;;;;;2.20;1.00;;;34.60;99.90;;;;;;5105422;28;20109;-90
2022/08/13 14:43:33;;;;;;;3.50;0.95;;;34.40;99.90;;;;;;5114358;28;20036;-89
2022/08/13 14:46:39;;;;;;;1.10;0.88;;;34.30;99.90;;;;;;5108404;28;20047;-92
2022/08/13 14:49:27;;;;;;;2.88;1.20;;;34.60;99.90;;;;;;5112251;28;20054;-89
2022/08/13 14:52:34;;;;;;;1.48;1.10;;;34.60;99.90;;;;;;5112724;28;20134;-86
2022/08/13 14:55:30;;;;;;;1.45;1.00;;;34.30;99.90;;;;;;5109459;28;20048;-91
2022/08/13 14:58:19;;;;;;;3.83;1.02;;;34.60;99.90;;;;;;5106634;28;20043;-89
2022/08/13 15:01:21;;;;;;;3.58;1.05;;;34.50;99.90;;;;;;5107849;28;20055;-91
2022/08/13 15:04:10;;;;;;;4.35;1.08;;;34.60;99.90;;;;;;5114000;28;20054;-90
2022/08/13 15:06:58;;;;;;;4.40;1.00;;;35.20;99.90;;;;;;5103072;28;20040;-88
2022/08/13 15:09:49;;;;;;;1.60;0.93;;;34.90;99.90;;;;;;5115572;27;20054;-86
2022/08/13 15:12:39;;;;;;;4.15;1.00;;;35.00;99.90;;;;;;5129428;27;20067;-89
2022/08/13 15:15:29;;;;;;;3.40;1.27;;;35.20;99.90;;;;;;5129237;27;20074;-88
2022/08/13 15:18:39;;;;;;;2.38;0.90;;;34.00;99.90;;;;;;5129035;28;20092;-83
2022/08/13 15:21:26;;;;;;;2.08;0.90;;;34.30;99.90;;;;;;5141251;28;20023;-80
2022/08/13 15:24:35;;;;;;;1.05;0.90;;;34.40;99.90;;;;;;5135953;28;20035;-88
2022/08/13 15:27:51;;;;;;;1.95;0.98;;;34.40;99.90;;;;;;5123533;28;20051;-90
2022/08/13 15:30:43;;;;;;;4.53;0.93;;;33.80;99.90;;;;;;5119274;27;20046;-91
2022/08/13 15:33:32;;;;;;;1.20;0.98;;;34.40;99.90;;;;;;5107402;28;20040;-90
2022/08/13 15:36:26;;;;;;;2.40;0.98;;;34.60;99.90;;;;;;5128179;27;20048;-87
2022/08/13 15:39:35;;;;;;;2.95;0.82;;;34.70;99.90;;;;;;5126800;27;20056;-91
2022/08/13 15:42:38;;;;;;;5.13;0.82;;;33.80;99.90;;;;;;5117015;27;20046;-92